Time;durP1;ratioP1;P1;durP2;ratioP2;P2;SDS_P1;SDS_P2;PMS_P1;PMS_P2;Temp;Humidity;BMP_temperature;BMP_pressure;BME280_temperature;BME280_humidity;BME280_pressure;Samples;Min_cycle;Max_cycle;Signal;HPM_P1;HPM_P2
2024/01/11 00:00:34;;;;;;;41.63;25.93;;;-4.50;99.90;;;;;;5100872;27;20085;-71
2024/01/11 00:03:00;;;;;;;50.90;42.00;;;-4.60;99.90;;;;;;5123110;27;20347;-70
2024/01/11 00:05:26;;;;;;;52.43;44.90;;;-4.60;99.90;;;;;;5120230;27;20038;-70
2024/01/11 00:07:52;;;;;;;53.23;43.83;;;-4.60;99.90;;;;;;5122833;27;20513;-70
2024/01/11 00:10:18;;;;;;;45.40;26.47;;;-4.70;99.90;;;;;;5123521;27;20119;-70
2024/01/11 00:12:44;;;;;;;56.23;45.97;;;-4.60;99.90;;;;;;5147849;27;20057;-70
2024/01/11 00:15:10;;;;;;;54.77;44.40;;;-4.70;99.90;;;;;;5124210;27;20043;-70
2024/01/11 00:17:36;;;;;;;46.03;31.27;;;-4.70;99.90;;;;;;5121109;27;20130;-70
2024/01/11 00:20:02;;;;;;;42.30;26.60;;;-4.80;99.90;;;;;;5114540;27;20830;-70
2024/01/11 00:22:28;;;;;;;53.50;44.23;;;-4.80;99.90;;;;;;5121395;27;20070;-70
2024/01/11 00:24:54;;;;;;;57.17;46.20;;;-4.80;99.90;;;;;;5115903;27;20089;-70
2024/01/11 00:27:20;;;;;;;51.13;40.07;;;-4.80;99.90;;;;;;5124154;27;20041;-70
2024/01/11 00:29:46;;;;;;;57.73;46.10;;;-4.80;99.90;;;;;;5125391;27;20055;-69
2024/01/11 00:32:11;;;;;;;57.97;47.07;;;-4.80;99.90;;;;;;5125773;27;20047;-69
2024/01/11 00:34:38;;;;;;;46.00;30.13;;;-4.80;99.90;;;;;;5116230;27;20446;-69
2024/01/11 00:37:04;;;;;;;50.87;32.73;;;-4.80;99.90;;;;;;5113660;27;20038;-70
2024/01/11 00:39:30;;;;;;;57.77;45.33;;;-4.80;99.90;;;;;;5120533;27;20095;-69
2024/01/11 00:41:58;;;;;;;54.00;37.47;;;-4.90;99.90;;;;;;5123249;27;20311;-69
2024/01/11 00:44:24;;;;;;;58.57;46.67;;;-4.90;99.90;;;;;;5113058;27;20053;-69
2024/01/11 00:46:50;;;;;;;62.13;47.63;;;-4.90;99.90;;;;;;5108534;27;20148;-69
2024/01/11 00:49:15;;;;;;;60.97;46.80;;;-4.90;99.90;;;;;;5116950;27;20492;-69
2024/01/11 00:51:41;;;;;;;57.07;39.20;;;-4.90;99.90;;;;;;5116865;27;20051;-69
2024/01/11 00:54:07;;;;;;;54.47;39.10;;;-5.00;99.90;;;;;;5127797;27;20046;-69
2024/01/11 00:56:33;;;;;;;48.50;29.13;;;-5.00;99.90;;;;;;5120059;27;20075;-72
2024/01/11 00:58:59;;;;;;;61.23;48.17;;;-5.00;99.90;;;;;;5114739;27;20124;-72
2024/01/11 01:01:24;;;;;;;59.87;47.13;;;-5.00;99.90;;;;;;5115403;27;20122;-72
2024/01/11 01:03:50;;;;;;;61.73;47.40;;;-5.00;99.90;;;;;;5099365;27;20405;-72
2024/01/11 01:06:16;;;;;;;47.40;23.70;;;-5.00;99.90;;;;;;5116452;27;20072;-72
2024/01/11 01:08:41;;;;;;;62.07;46.40;;;-5.10;99.90;;;;;;5116628;27;20051;-69
2024/01/11 01:11:07;;;;;;;58.10;40.57;;;-5.00;99.90;;;;;;5115199;27;20030;-69
2024/01/11 01:13:33;;;;;;;51.50;26.77;;;-5.00;99.90;;;;;;5115177;27;20050;-69
2024/01/11 01:15:59;;;;;;;62.30;47.07;;;-5.00;99.90;;;;;;5126958;27;20035;-69
2024/01/11 01:18:24;;;;;;;62.50;48.30;;;-5.00;99.90;;;;;;5121566;27;20064;-70
2024/01/11 01:20:51;;;;;;;63.47;48.17;;;-5.00;99.90;;;;;;5109368;27;20030;-69
2024/01/11 01:23:18;;;;;;;66.03;48.93;;;-5.00;99.90;;;;;;5119743;27;20031;-69
2024/01/11 01:25:43;;;;;;;67.27;48.97;;;-5.00;99.90;;;;;;5114019;27;20641;-69
2024/01/11 01:28:10;;;;;;;51.10;28.43;;;-5.00;99.90;;;;;;5106903;27;20051;-69
2024/01/11 01:30:35;;;;;;;61.93;47.00;;;-5.00;99.90;;;;;;5125753;27;20165;-69
2024/01/11 01:33:01;;;;;;;57.63;35.87;;;-5.00;99.90;;;;;;5114018;27;20145;-71
2024/01/11 01:35:27;;;;;;;53.80;30.33;;;-5.00;99.90;;;;;;5121588;27;20445;-69
2024/01/11 01:37:53;;;;;;;54.10;31.57;;;-5.00;99.90;;;;;;5104437;27;20104;-69
2024/01/11 01:40:18;;;;;;;59.47;45.83;;;-5.10;99.90;;;;;;5113699;27;20067;-69
2024/01/11 01:42:45;;;;;;;52.37;33.50;;;-5.10;99.90;;;;;;5118970;27;20460;-68
2024/01/11 01:45:11;;;;;;;60.77;47.23;;;-5.10;99.90;;;;;;5113413;27;20061;-69
2024/01/11 01:47:39;;;;;;;60.80;45.73;;;-5.10;99.90;;;;;;5127410;27;20077;-69
2024/01/11 01:50:06;;;;;;;58.70;47.33;;;-5.10;99.90;;;;;;5103062;27;20070;-68
2024/01/11 01:52:34;;;;;;;53.47;33.73;;;-5.10;99.90;;;;;;5112508;27;20076;-69
2024/01/11 01:55:01;;;;;;;52.00;29.53;;;-5.10;99.90;;;;;;5125744;27;20126;-69
2024/01/11 01:57:27;;;;;;;61.50;47.00;;;-5.10;99.90;;;;;;5111875;27;20175;-69
2024/01/11 01:59:53;;;;;;;52.20;31.43;;;-5.10;99.90;;;;;;5121427;27;20035;-70
2024/01/11 02:02:22;;;;;;;63.37;49.13;;;-5.10;99.90;;;;;;5114582;27;20051;-69
2024/01/11 02:04:48;;;;;;;57.43;45.13;;;-5.10;99.90;;;;;;5114942;27;20045;-69
2024/01/11 02:07:15;;;;;;;59.87;46.57;;;-5.10;99.90;;;;;;5113356;27;20067;-69
2024/01/11 02:09:43;;;;;;;50.80;27.57;;;-5.10;99.90;;;;;;5108435;27;20137;-68
2024/01/11 02:12:12;;;;;;;59.83;47.30;;;-5.10;99.90;;;;;;5129029;27;20038;-69
2024/01/11 02:14:38;;;;;;;59.60;45.33;;;-5.10;99.90;;;;;;5127547;27;20381;-69
2024/01/11 02:17:04;;;;;;;51.57;29.20;;;-5.10;99.90;;;;;;5119437;27;20043;-70
2024/01/11 02:19:30;;;;;;;59.33;45.77;;;-5.10;99.90;;;;;;5111344;27;20641;-69
2024/01/11 02:21:59;;;;;;;55.07;39.17;;;-5.10;99.90;;;;;;5119731;27;20157;-69
2024/01/11 02:24:25;;;;;;;59.43;46.43;;;-5.10;99.90;;;;;;5114268;27;20055;-69
2024/01/11 02:26:58;;;;;;;60.10;46.17;;;-5.10;99.90;;;;;;5108815;27;20122;-69
2024/01/11 02:29:24;;;;;;;60.90;46.60;;;-5.10;99.90;;;;;;5113005;27;21482;-69
2024/01/11 02:31:50;;;;;;;63.27;48.23;;;-5.10;99.90;;;;;;5115883;27;20035;-68
2024/01/11 02:34:16;;;;;;;66.53;49.43;;;-5.10;99.90;;;;;;5123154;27;20074;-69
2024/01/11 02:36:43;;;;;;;62.53;47.63;;;-5.10;99.90;;;;;;5117188;27;20115;-69
2024/01/11 02:39:09;;;;;;;53.80;35.40;;;-5.20;99.90;;;;;;5116302;27;20046;-69
2024/01/11 02:41:37;;;;;;;51.27;26.90;;;-5.20;99.90;;;;;;5112796;27;20043;-69
2024/01/11 02:44:02;;;;;;;51.00;30.23;;;-5.20;99.90;;;;;;5130476;27;20043;-68
2024/01/11 02:46:28;;;;;;;53.00;27.27;;;-5.20;99.90;;;;;;5116270;27;20049;-70
2024/01/11 02:48:54;;;;;;;63.47;48.30;;;-5.30;99.90;;;;;;5112645;27;20413;-70
2024/01/11 02:51:20;;;;;;;64.67;49.37;;;-5.20;99.90;;;;;;5126694;27;20794;-69
2024/01/11 02:53:45;;;;;;;63.93;48.33;;;-5.20;99.90;;;;;;5123900;27;20544;-69
2024/01/11 02:56:11;;;;;;;67.87;49.70;;;-5.20;99.90;;;;;;5116647;27;20037;-69
2024/01/11 02:58:37;;;;;;;49.80;23.30;;;-5.20;99.90;;;;;;5117733;27;20151;-69
2024/01/11 03:01:03;;;;;;;60.97;42.27;;;-5.30;99.90;;;;;;5110682;27;20051;-68
2024/01/11 03:03:29;;;;;;;64.57;47.93;;;-5.20;99.90;;;;;;5118853;27;20119;-69
2024/01/11 03:05:54;;;;;;;65.67;49.30;;;-5.30;99.90;;;;;;5120223;27;20397;-69
2024/01/11 03:08:20;;;;;;;58.87;36.87;;;-5.30;99.90;;;;;;5120141;27;20601;-68
2024/01/11 03:10:46;;;;;;;65.83;49.13;;;-5.30;99.90;;;;;;5121530;27;20050;-68
2024/01/11 03:13:12;;;;;;;49.53;27.10;;;-5.30;99.90;;;;;;5119502;27;20397;-69
2024/01/11 03:15:38;;;;;;;65.77;49.53;;;-5.30;99.90;;;;;;5121128;27;20084;-69
2024/01/11 03:18:04;;;;;;;48.70;24.23;;;-5.30;99.90;;;;;;5139917;27;20118;-69
2024/01/11 03:20:30;;;;;;;66.10;49.87;;;-5.30;99.90;;;;;;5122697;27;20054;-69
2024/01/11 03:22:56;;;;;;;57.20;36.40;;;-5.30;99.90;;;;;;5120008;27;20397;-69
2024/01/11 03:25:21;;;;;;;53.20;29.57;;;-5.30;99.90;;;;;;5119964;27;20397;-69
2024/01/11 03:27:47;;;;;;;63.50;47.93;;;-5.30;99.90;;;;;;5120975;27;20497;-69
2024/01/11 03:30:13;;;;;;;59.27;37.97;;;-5.30;99.90;;;;;;5126136;27;20035;-69
2024/01/11 03:32:39;;;;;;;61.83;47.73;;;-5.20;99.90;;;;;;5119855;27;20122;-68
2024/01/11 03:35:08;;;;;;;64.93;50.37;;;-5.30;99.90;;;;;;5124685;27;20145;-69
2024/01/11 03:37:35;;;;;;;54.20;33.63;;;-5.20;99.90;;;;;;5115038;27;20508;-68
2024/01/11 03:40:02;;;;;;;65.90;49.60;;;-5.30;99.90;;;;;;5122332;27;20315;-69
2024/01/11 03:42:28;;;;;;;66.00;50.40;;;-5.30;99.90;;;;;;5110063;27;20038;-69
2024/01/11 03:44:54;;;;;;;64.23;48.83;;;-5.30;99.90;;;;;;5113174;27;20397;-68
2024/01/11 03:47:20;;;;;;;56.80;31.07;;;-5.30;99.90;;;;;;5122315;27;20167;-69
2024/01/11 03:49:45;;;;;;;48.87;26.90;;;-5.30;99.90;;;;;;5126043;27;20057;-71
2024/01/11 03:52:11;;;;;;;64.73;48.33;;;-5.30;99.90;;;;;;5113314;27;20562;-71
2024/01/11 03:54:37;;;;;;;57.50;37.77;;;-5.30;99.90;;;;;;5119083;27;20157;-71
2024/01/11 03:57:03;;;;;;;70.87;52.53;;;-5.40;99.90;;;;;;5112811;27;20444;-73
2024/01/11 03:59:28;;;;;;;62.17;49.37;;;-5.40;99.90;;;;;;5117576;27;20068;-73
2024/01/11 04:01:55;;;;;;;60.27;46.53;;;-5.40;99.90;;;;;;5120149;27;20078;-73
2024/01/11 04:04:22;;;;;;;62.60;49.57;;;-5.40;99.90;;;;;;5123080;27;20034;-74
2024/01/11 04:06:49;;;;;;;65.20;51.13;;;-5.40;99.90;;;;;;5119275;27;20464;-74
2024/01/11 04:09:15;;;;;;;61.17;46.47;;;-5.40;99.90;;;;;;5120099;27;20035;-73
2024/01/11 04:11:41;;;;;;;56.80;36.13;;;-5.40;99.90;;;;;;5124264;27;20077;-74
2024/01/11 04:14:06;;;;;;;54.50;30.40;;;-5.40;99.90;;;;;;5130374;27;20039;-73
2024/01/11 04:16:32;;;;;;;62.67;48.30;;;-5.50;99.90;;;;;;5117125;27;20118;-74
2024/01/11 04:18:58;;;;;;;54.73;33.40;;;-5.50;99.90;;;;;;5126245;27;20499;-72
2024/01/11 04:21:28;;;;;;;66.07;46.80;;;-5.50;99.90;;;;;;5115296;27;20107;-72
2024/01/11 04:23:54;;;;;;;72.65;53.35;;;-5.50;99.90;;;;;;5111135;27;20047;-73
2024/01/11 04:26:23;;;;;;;80.67;55.67;;;-5.60;99.90;;;;;;5127444;27;20045;-72
2024/01/11 04:28:50;;;;;;;55.10;31.27;;;-5.50;99.90;;;;;;5126154;27;20073;-72
2024/01/11 04:31:16;;;;;;;78.13;53.03;;;-5.60;99.90;;;;;;5130683;27;20266;-71
2024/01/11 04:33:43;;;;;;;61.83;34.00;;;-5.70;99.90;;;;;;5119223;27;20552;-72
2024/01/11 04:36:09;;;;;;;60.97;33.20;;;-5.70;99.90;;;;;;5111948;27;20118;-72
2024/01/11 04:38:37;;;;;;;50.03;26.57;;;-5.70;99.90;;;;;;5112357;27;20480;-72
2024/01/11 04:41:09;;;;;;;64.83;49.37;;;-5.80;99.90;;;;;;5133840;27;20039;-71
2024/01/11 04:43:42;;;;;;;73.90;53.03;;;-5.80;99.90;;;;;;5125285;27;20047;-71
2024/01/11 04:46:18;;;;;;;69.17;50.83;;;-5.80;99.90;;;;;;5119302;27;20117;-71
2024/01/11 04:48:44;;;;;;;60.27;37.60;;;-5.70;99.90;;;;;;5121127;27;20050;-68
2024/01/11 04:51:12;;;;;;;57.37;30.70;;;-5.70;99.90;;;;;;5119422;27;20121;-71
2024/01/11 04:53:41;;;;;;;60.20;32.03;;;-5.70;99.90;;;;;;5118558;27;20046;-68
2024/01/11 04:56:07;;;;;;;73.68;54.92;;;-5.70;99.90;;;;;;5114025;27;20129;-69
2024/01/11 04:58:34;;;;;;;63.50;34.93;;;-5.70;99.90;;;;;;5131657;27;20404;-68
2024/01/11 05:01:00;;;;;;;76.90;55.60;;;-5.70;99.90;;;;;;5122308;27;20039;-69
2024/01/11 05:03:26;;;;;;;65.43;42.83;;;-5.70;99.90;;;;;;5124126;27;20592;-69
2024/01/11 05:05:52;;;;;;;63.17;35.90;;;-5.70;99.90;;;;;;5121091;27;20126;-69
2024/01/11 05:08:17;;;;;;;66.43;47.83;;;-5.70;99.90;;;;;;5116955;27;20099;-69
2024/01/11 05:10:44;;;;;;;68.13;48.00;;;-5.70;99.90;;;;;;5104933;27;20134;-68
2024/01/11 05:13:10;;;;;;;57.47;38.23;;;-5.70;99.90;;;;;;5106083;27;20049;-68
2024/01/11 05:15:36;;;;;;;63.50;49.63;;;-5.70;99.90;;;;;;5130055;27;20039;-68
2024/01/11 05:18:02;;;;;;;69.83;51.47;;;-5.70;99.90;;;;;;5130737;27;20050;-69
2024/01/11 05:20:27;;;;;;;65.33;50.17;;;-5.70;99.90;;;;;;5130122;27;20042;-70
2024/01/11 05:22:54;;;;;;;65.50;49.87;;;-5.70;99.90;;;;;;5128079;27;20082;-71
2024/01/11 05:25:20;;;;;;;65.30;39.57;;;-5.60;99.90;;;;;;5133177;27;20094;-68
2024/01/11 05:27:45;;;;;;;73.30;52.77;;;-5.60;99.90;;;;;;5131705;27;20241;-68
2024/01/11 05:30:14;;;;;;;72.80;54.20;;;-5.50;99.90;;;;;;5111386;27;20070;-68
2024/01/11 05:32:40;;;;;;;59.20;31.73;;;-5.50;99.90;;;;;;5131958;27;20070;-68
2024/01/11 05:35:06;;;;;;;63.70;33.77;;;-5.50;99.90;;;;;;5116053;27;20071;-69
2024/01/11 05:37:32;;;;;;;74.37;54.37;;;-5.50;99.90;;;;;;5116260;27;20116;-69
2024/01/11 05:39:57;;;;;;;70.20;53.07;;;-5.40;99.90;;;;;;5118430;27;20051;-69
2024/01/11 05:42:24;;;;;;;61.60;39.90;;;-5.30;99.90;;;;;;5114532;27;20096;-69
2024/01/11 05:44:51;;;;;;;58.33;30.47;;;-5.30;99.90;;;;;;5110478;27;20129;-69
2024/01/11 05:47:17;;;;;;;71.83;54.13;;;-5.20;99.90;;;;;;5122121;27;20464;-69
2024/01/11 05:49:43;;;;;;;72.17;53.37;;;-5.20;99.90;;;;;;5125782;27;20090;-70
2024/01/11 05:52:08;;;;;;;73.30;54.63;;;-5.10;99.90;;;;;;5106875;27;20503;-68
2024/01/11 05:54:35;;;;;;;63.30;38.57;;;-5.10;99.90;;;;;;5116014;27;20108;-69
2024/01/11 05:57:00;;;;;;;74.60;56.10;;;-5.00;99.90;;;;;;5122098;27;20074;-69
2024/01/11 05:59:26;;;;;;;68.87;45.37;;;-5.00;99.90;;;;;;5129671;27;20039;-69
2024/01/11 06:01:52;;;;;;;72.93;54.27;;;-4.90;99.90;;;;;;5131961;27;20133;-68
2024/01/11 06:04:18;;;;;;;74.93;54.03;;;-4.90;99.90;;;;;;5099579;27;20134;-69
2024/01/11 06:06:43;;;;;;;61.80;33.47;;;-4.80;99.90;;;;;;5117156;27;20047;-69
2024/01/11 06:09:10;;;;;;;79.73;59.00;;;-4.80;99.90;;;;;;5115117;27;20105;-68
2024/01/11 06:11:36;;;;;;;76.30;55.03;;;-4.70;99.90;;;;;;5117112;27;20476;-68
2024/01/11 06:14:02;;;;;;;76.67;49.90;;;-4.60;99.90;;;;;;5119587;27;20078;-69
2024/01/11 06:16:31;;;;;;;84.17;60.67;;;-4.60;99.90;;;;;;5123268;27;20074;-71
2024/01/11 06:18:57;;;;;;;80.93;58.23;;;-4.60;99.90;;;;;;5116571;27;20047;-74
2024/01/11 06:21:23;;;;;;;91.70;64.00;;;-4.50;99.90;;;;;;5127158;27;20038;-72
2024/01/11 06:23:49;;;;;;;75.20;47.63;;;-4.40;99.90;;;;;;5120811;27;20038;-72
2024/01/11 06:26:14;;;;;;;88.80;63.90;;;-4.40;99.90;;;;;;5117153;27;20039;-73
2024/01/11 06:28:40;;;;;;;68.27;34.87;;;-4.30;99.90;;;;;;5103844;27;20162;-74
2024/01/11 06:31:06;;;;;;;80.30;58.57;;;-4.30;99.90;;;;;;5128227;27;20134;-73
2024/01/11 06:33:32;;;;;;;83.93;60.23;;;-4.30;99.90;;;;;;5131013;27;20366;-74
2024/01/11 06:35:59;;;;;;;80.90;59.37;;;-4.20;99.90;;;;;;5123199;27;20039;-71
2024/01/11 06:38:24;;;;;;;79.83;57.50;;;-4.20;99.90;;;;;;5109175;27;20122;-71
2024/01/11 06:40:50;;;;;;;87.57;62.70;;;-4.10;99.90;;;;;;5113609;27;20133;-74
2024/01/11 06:43:16;;;;;;;72.50;41.37;;;-4.10;99.90;;;;;;5132129;27;20378;-74
2024/01/11 06:45:45;;;;;;;81.93;59.27;;;-4.00;99.90;;;;;;5125093;27;20499;-73
2024/01/11 06:48:10;;;;;;;89.70;62.40;;;-4.00;99.90;;;;;;5124189;27;20060;-73
2024/01/11 06:50:36;;;;;;;99.53;67.10;;;-3.90;99.90;;;;;;5115640;27;20042;-74
2024/01/11 06:53:02;;;;;;;91.10;64.50;;;-3.90;99.90;;;;;;5117750;27;20054;-74
2024/01/11 06:55:28;;;;;;;89.77;62.60;;;-3.80;99.90;;;;;;5124934;27;20088;-74
2024/01/11 06:57:54;;;;;;;93.77;67.60;;;-3.80;99.90;;;;;;5109055;27;20525;-71
2024/01/11 07:00:21;;;;;;;87.10;62.13;;;-3.80;99.90;;;;;;5119575;27;20038;-69
2024/01/11 07:02:48;;;;;;;91.90;64.97;;;-3.70;99.90;;;;;;5124462;27;20070;-69
2024/01/11 07:05:13;;;;;;;87.13;63.27;;;-3.60;99.90;;;;;;5120035;27;20072;-74
2024/01/11 07:07:39;;;;;;;89.53;62.37;;;-3.60;99.90;;;;;;5116645;27;20043;-74
2024/01/11 07:10:06;;;;;;;88.97;61.97;;;-3.50;99.90;;;;;;5121369;27;20590;-74
2024/01/11 07:12:32;;;;;;;88.93;61.73;;;-3.50;99.90;;;;;;5121281;27;20039;-71
2024/01/11 07:14:58;;;;;;;79.17;57.90;;;-3.50;99.90;;;;;;5127992;27;20078;-71
2024/01/11 07:17:25;;;;;;;91.73;65.73;;;-3.40;99.90;;;;;;5112171;27;20066;-72
2024/01/11 07:19:51;;;;;;;95.87;66.27;;;-3.30;99.90;;;;;;5106201;27;20107;-72
2024/01/11 07:22:16;;;;;;;80.97;58.00;;;-3.30;99.90;;;;;;5117575;27;20540;-75
2024/01/11 07:24:42;;;;;;;93.77;65.17;;;-3.30;99.90;;;;;;5114776;27;20047;-75
2024/01/11 07:27:08;;;;;;;91.47;64.70;;;-3.20;99.90;;;;;;5112880;27;20031;-74
2024/01/11 07:29:35;;;;;;;81.97;60.30;;;-3.10;99.90;;;;;;5113612;27;20100;-73
2024/01/11 07:32:01;;;;;;;91.97;63.87;;;-3.10;99.90;;;;;;5123229;27;20051;-73
2024/01/11 07:34:27;;;;;;;91.30;62.97;;;-3.00;99.90;;;;;;5120893;27;20067;-73
2024/01/11 07:36:53;;;;;;;81.37;58.67;;;-3.00;99.90;;;;;;5117944;27;20126;-74
2024/01/11 07:39:19;;;;;;;90.93;63.07;;;-3.00;99.90;;;;;;5108470;27;20497;-74
2024/01/11 07:41:45;;;;;;;82.73;59.97;;;-2.90;99.90;;;;;;5121169;27;20035;-73
2024/01/11 07:44:11;;;;;;;81.83;57.77;;;-2.90;99.90;;;;;;5126584;27;20149;-74
2024/01/11 07:46:40;;;;;;;91.23;62.67;;;-2.90;99.90;;;;;;5129358;27;20043;-73
2024/01/11 07:49:06;;;;;;;88.03;60.83;;;-2.90;99.90;;;;;;5114162;27;20811;-73
2024/01/11 07:51:33;;;;;;;79.67;58.90;;;-2.80;99.90;;;;;;5118646;27;20038;-72
2024/01/11 07:54:00;;;;;;;91.87;66.43;;;-2.80;99.90;;;;;;5113252;27;20826;-72
2024/01/11 07:56:26;;;;;;;82.97;61.57;;;-2.70;99.90;;;;;;5118751;27;20103;-72
2024/01/11 07:58:52;;;;;;;89.60;65.67;;;-2.70;99.90;;;;;;5118228;27;20047;-72
2024/01/11 08:01:17;;;;;;;91.63;65.30;;;-2.70;99.90;;;;;;5114227;27;20050;-72
2024/01/11 08:03:47;;;;;;;85.80;62.57;;;-2.60;99.90;;;;;;5120097;27;20047;-72
2024/01/11 08:06:13;;;;;;;85.80;62.00;;;-2.60;99.90;;;;;;5110178;27;20039;-72
2024/01/11 08:08:39;;;;;;;87.73;62.10;;;-2.60;99.90;;;;;;5115315;27;20043;-72
2024/01/11 08:11:07;;;;;;;85.80;62.00;;;-2.60;99.90;;;;;;5126909;27;20047;-73
2024/01/11 08:13:34;;;;;;;82.10;60.57;;;-2.50;99.90;;;;;;5108527;27;20096;-72
2024/01/11 08:16:03;;;;;;;76.70;56.97;;;-2.50;99.90;;;;;;5120183;27;20069;-72
2024/01/11 08:18:30;;;;;;;87.67;63.27;;;-2.40;99.90;;;;;;5099651;27;20035;-71
2024/01/11 08:21:02;;;;;;;75.47;56.03;;;-2.50;99.90;;;;;;5118075;27;20051;-72
2024/01/11 08:23:28;;;;;;;80.00;59.83;;;-2.40;99.90;;;;;;5095305;27;20031;-72
2024/01/11 08:25:54;;;;;;;92.37;67.67;;;-2.40;99.90;;;;;;5111112;27;20042;-72
2024/01/11 08:28:20;;;;;;;80.57;59.83;;;-2.30;99.90;;;;;;5121146;27;20465;-72
2024/01/11 08:30:46;;;;;;;88.47;64.90;;;-2.30;99.90;;;;;;5115833;27;20047;-72
2024/01/11 08:33:12;;;;;;;81.73;60.70;;;-2.30;99.90;;;;;;5122630;27;20092;-72
2024/01/11 08:35:40;;;;;;;86.70;61.60;;;-2.30;99.90;;;;;;5113626;27;20101;-72
2024/01/11 08:38:06;;;;;;;88.17;64.20;;;-2.20;99.90;;;;;;5122393;27;20074;-72
2024/01/11 08:40:33;;;;;;;90.03;65.70;;;-2.20;99.90;;;;;;5123302;27;20085;-72
2024/01/11 08:42:59;;;;;;;86.03;63.73;;;-2.10;99.90;;;;;;5122566;27;20469;-73
2024/01/11 08:45:29;;;;;;;91.67;64.33;;;-2.10;99.90;;;;;;5120939;27;20073;-72
2024/01/11 08:47:56;;;;;;;84.70;60.35;;;-2.10;99.90;;;;;;5093587;27;20081;-73
2024/01/11 08:50:22;;;;;;;81.90;60.20;;;-2.10;99.90;;;;;;5103133;27;20181;-73
2024/01/11 08:52:48;;;;;;;92.70;63.20;;;-2.00;99.90;;;;;;5110149;27;20692;-72
2024/01/11 08:55:14;;;;;;;76.87;58.03;;;-2.00;99.90;;;;;;5114644;27;20408;-73
2024/01/11 08:57:40;;;;;;;89.80;65.03;;;-1.90;99.90;;;;;;5111718;27;20027;-73
2024/01/11 09:00:06;;;;;;;85.43;61.60;;;-2.00;99.90;;;;;;5113004;27;20051;-69
2024/01/11 09:02:32;;;;;;;84.90;63.07;;;-1.90;99.90;;;;;;5117084;27;20090;-69
2024/01/11 09:04:57;;;;;;;89.13;64.33;;;-1.90;99.90;;;;;;5116463;27;20078;-69
2024/01/11 09:07:23;;;;;;;91.30;67.57;;;-1.80;99.90;;;;;;5116021;27;20413;-70
2024/01/11 09:09:49;;;;;;;85.60;65.63;;;-1.80;99.90;;;;;;5113691;27;20054;-69
2024/01/11 09:12:15;;;;;;;91.33;67.07;;;-1.70;99.90;;;;;;5118108;27;20540;-70
2024/01/11 09:14:41;;;;;;;81.17;61.77;;;-1.70;99.90;;;;;;5123315;27;20493;-70
2024/01/11 09:17:08;;;;;;;88.53;66.10;;;-1.70;99.90;;;;;;5110557;27;20130;-69
2024/01/11 09:19:34;;;;;;;90.47;66.67;;;-1.60;99.90;;;;;;5107783;27;20043;-69
2024/01/11 09:22:00;;;;;;;84.07;59.40;;;-1.60;99.90;;;;;;5120760;27;20070;-69
2024/01/11 09:24:28;;;;;;;81.57;60.60;;;-1.50;99.90;;;;;;5119111;27;20073;-70
2024/01/11 09:26:54;;;;;;;90.27;65.33;;;-1.50;99.90;;;;;;5123121;27;20035;-69
2024/01/11 09:29:20;;;;;;;82.23;59.20;;;-1.40;99.90;;;;;;5117376;27;20123;-70
2024/01/11 09:31:46;;;;;;;83.43;60.47;;;-1.40;99.90;;;;;;5116699;27;20047;-70
2024/01/11 09:34:12;;;;;;;90.13;64.27;;;-1.30;99.90;;;;;;5117235;27;20046;-70
2024/01/11 09:36:41;;;;;;;88.30;62.83;;;-1.30;99.90;;;;;;5127521;27;20074;-70
2024/01/11 09:39:08;;;;;;;85.13;63.50;;;-1.30;99.90;;;;;;5110643;27;20039;-70
2024/01/11 09:41:36;;;;;;;90.33;65.07;;;-1.20;99.90;;;;;;5116323;27;20070;-70
2024/01/11 09:44:05;;;;;;;92.87;65.03;;;-1.20;99.90;;;;;;5112412;27;20038;-71
2024/01/11 09:46:32;;;;;;;98.27;68.67;;;-1.10;99.90;;;;;;5107562;27;20582;-71
2024/01/11 09:49:00;;;;;;;94.87;67.17;;;-1.10;99.90;;;;;;5119071;27;20055;-74
2024/01/11 09:51:26;;;;;;;91.53;64.37;;;-1.10;99.90;;;;;;5124681;27;20088;-74
2024/01/11 09:53:58;;;;;;;92.57;65.70;;;-1.00;99.90;;;;;;5113547;27;20043;-74
2024/01/11 09:56:24;;;;;;;85.00;62.47;;;-1.00;99.90;;;;;;5140322;27;20035;-74
2024/01/11 09:58:51;;;;;;;89.77;62.87;;;-0.80;99.90;;;;;;5118219;27;20099;-74
2024/01/11 10:01:17;;;;;;;79.57;57.33;;;-0.90;99.90;;;;;;5123633;27;20050;-74
2024/01/11 10:03:46;;;;;;;78.30;59.30;;;-0.80;99.90;;;;;;5132301;27;20261;-73
2024/01/11 10:06:16;;;;;;;86.53;63.37;;;-0.80;99.90;;;;;;5118537;27;20333;-74
2024/01/11 10:08:43;;;;;;;;;;;-0.70;99.90;;;;;;5116208;27;20051;-74
2024/01/11 10:11:08;;;;;;;79.00;57.97;;;-0.70;99.90;;;;;;5114953;27;20019;-74
2024/01/11 10:13:35;;;;;;;74.97;56.13;;;-0.70;99.90;;;;;;5122871;27;20130;-74
2024/01/11 10:16:15;;;;;;;70.17;54.03;;;-0.60;99.90;;;;;;5111141;27;20062;-73
2024/01/11 10:18:41;;;;;;;78.10;57.13;;;-0.60;99.90;;;;;;5127909;27;20051;-71
2024/01/11 10:21:09;;;;;;;71.10;53.63;;;-0.60;99.90;;;;;;5114621;27;20039;-72
2024/01/11 10:23:36;;;;;;;73.57;54.67;;;-0.50;99.90;;;;;;5109806;27;20137;-72
2024/01/11 10:26:02;;;;;;;69.33;53.03;;;-0.40;99.90;;;;;;5112580;27;20131;-71
2024/01/11 10:28:28;;;;;;;71.80;54.23;;;-0.40;99.90;;;;;;5126340;27;20038;-72
2024/01/11 10:30:55;;;;;;;73.67;55.57;;;-0.40;99.90;;;;;;5131820;27;20049;-72
2024/01/11 10:33:21;;;;;;;70.67;53.17;;;-0.30;99.90;;;;;;5097211;27;20042;-73
2024/01/11 10:35:51;;;;;;;73.23;55.23;;;-0.30;99.90;;;;;;5096025;27;20096;-73
2024/01/11 10:38:17;;;;;;;71.17;53.23;;;-0.20;99.90;;;;;;5122656;27;20039;-73
2024/01/11 10:40:44;;;;;;;69.30;53.70;;;-0.20;99.90;;;;;;5136583;27;20043;-73
2024/01/11 10:43:11;;;;;;;70.90;53.67;;;-0.20;99.90;;;;;;5114528;27;20494;-73
2024/01/11 10:45:41;;;;;;;70.33;54.10;;;-0.10;99.90;;;;;;5115702;27;20561;-73
2024/01/11 10:48:16;;;;;;;68.75;52.72;;;-0.10;99.90;;;;;;5121213;27;20084;-73
2024/01/11 10:50:49;;;;;;;69.47;52.33;;;-0.10;99.90;;;;;;5119259;27;20476;-72
2024/01/11 10:53:47;;;;;;;65.80;48.67;;;0.00;99.90;;;;;;5121709;27;20051;-73
2024/01/11 10:56:15;;;;;;;66.73;52.43;;;0.00;99.90;;;;;;5137127;27;20042;-73
2024/01/11 10:58:46;;;;;;;58.70;49.23;;;0.00;99.90;;;;;;5121582;27;20042;-71
2024/01/11 11:01:13;;;;;;;64.87;50.43;;;0.00;99.90;;;;;;5122370;27;20043;-69
2024/01/11 11:03:39;;;;;;;66.60;51.47;;;0.10;99.90;;;;;;5118508;27;20646;-69
2024/01/11 11:06:07;;;;;;;66.33;51.60;;;0.10;99.90;;;;;;5118688;27;20867;-69
2024/01/11 11:08:33;;;;;;;64.33;51.40;;;0.20;99.90;;;;;;5099990;27;20068;-69
2024/01/11 11:11:05;;;;;;;61.20;48.40;;;0.20;99.90;;;;;;5119663;27;20568;-69
2024/01/11 11:13:32;;;;;;;68.33;51.23;;;0.20;99.90;;;;;;5121706;27;20157;-70
2024/01/11 11:15:58;;;;;;;63.90;49.70;;;0.20;99.90;;;;;;5114100;27;20488;-69
2024/01/11 11:18:24;;;;;;;64.83;50.60;;;0.30;99.90;;;;;;5119771;27;20140;-69
2024/01/11 11:20:51;;;;;;;66.67;49.40;;;0.30;99.90;;;;;;5115841;27;20039;-69
2024/01/11 11:23:18;;;;;;;63.58;48.92;;;0.30;99.90;;;;;;5121984;27;20171;-70
2024/01/11 11:25:48;;;;;;;62.22;48.55;;;0.30;99.90;;;;;;5123543;27;20043;-70
2024/01/11 11:28:17;;;;;;;62.13;48.17;;;0.50;99.90;;;;;;5126064;27;20039;-70
2024/01/11 11:30:44;;;;;;;59.13;45.72;;;0.40;99.90;;;;;;5118206;27;20792;-69
2024/01/11 11:33:10;;;;;;;63.37;47.73;;;0.40;99.90;;;;;;5118074;27;20490;-72
2024/01/11 11:35:37;;;;;;;61.08;48.13;;;0.40;99.90;;;;;;5114196;27;20709;-73
2024/01/11 11:38:05;;;;;;;61.90;47.07;;;0.50;99.90;;;;;;5116022;27;20042;-73
2024/01/11 11:40:39;;;;;;;58.20;45.80;;;0.40;99.90;;;;;;5114901;27;20889;-73
2024/01/11 11:43:09;;;;;;;57.22;44.88;;;0.50;99.90;;;;;;5122131;27;20397;-73
2024/01/11 11:45:35;;;;;;;57.80;45.87;;;0.50;99.90;;;;;;5118941;27;21736;-73
2024/01/11 11:48:02;;;;;;;60.97;47.83;;;0.50;99.90;;;;;;5127425;27;20045;-74
2024/01/11 11:50:31;;;;;;;53.43;43.37;;;0.50;99.90;;;;;;5119479;27;20051;-73
2024/01/11 11:52:57;;;;;;;60.00;46.03;;;0.50;99.90;;;;;;5120293;27;20050;-74
2024/01/11 11:55:27;;;;;;;57.80;46.43;;;0.60;99.90;;;;;;5123853;27;20110;-75
2024/01/11 11:57:53;;;;;;;53.50;43.92;;;0.60;99.90;;;;;;5108664;27;20163;-74
2024/01/11 12:00:23;;;;;;;55.57;43.90;;;0.60;99.90;;;;;;5116424;27;20122;-74
2024/01/11 12:02:51;;;;;;;;;;;0.60;99.90;;;;;;5121205;27;20038;-74
2024/01/11 12:05:18;;;;;;;53.87;41.67;;;0.70;99.90;;;;;;5113014;27;20316;-73
2024/01/11 12:07:45;;;;;;;53.20;42.87;;;0.60;99.90;;;;;;5102123;27;20039;-72
2024/01/11 12:10:11;;;;;;;53.78;43.80;;;0.70;99.90;;;;;;5114661;27;20466;-72
2024/01/11 12:12:38;;;;;;;54.25;42.17;;;0.70;99.90;;;;;;5119435;27;20049;-72
2024/01/11 12:15:05;;;;;;;52.65;42.85;;;0.70;99.90;;;;;;5121955;27;20034;-73
2024/01/11 12:17:31;;;;;;;53.45;42.28;;;0.80;99.90;;;;;;5122569;27;20049;-72
2024/01/11 12:19:56;;;;;;;52.47;42.63;;;0.80;99.90;;;;;;5118295;27;20051;-73
2024/01/11 12:22:24;;;;;;;52.45;41.88;;;0.90;99.90;;;;;;5113385;27;20125;-72
2024/01/11 12:24:50;;;;;;;52.22;43.03;;;0.80;99.90;;;;;;5140219;27;20042;-73